sensor_id;sensor_type;location;lat;lon;timestamp;temperature;humidity
44509;DHT22;30214;52.246;14.408;2023-08-08T00:01:02;14.10;99.90
44509;DHT22;30214;52.246;14.408;2023-08-08T00:03:29;14.00;99.90
44509;DHT22;30214;52.246;14.408;2023-08-08T00:05:56;14.00;99.90
44509;DHT22;30214;52.246;14.408;2023-08-08T00:08:24;14.00;99.90
44509;DHT22;30214;52.246;14.408;2023-08-08T00:10:51;13.90;99.90
44509;DHT22;30214;52.246;14.408;2023-08-08T00:13:19;13.90;99.90
44509;DHT22;30214;52.246;14.408;2023-08-08T00:15:46;14.00;99.90
44509;DHT22;30214;52.246;14.408;2023-08-08T00:18:13;14.00;99.90
44509;DHT22;30214;52.246;14.408;2023-08-08T00:20:40;14.00;99.90
44509;DHT22;30214;52.246;14.408;2023-08-08T00:23:10;14.00;99.90
44509;DHT22;30214;52.246;14.408;2023-08-08T00:25:38;13.90;99.90
44509;DHT22;30214;52.246;14.408;2023-08-08T00:28:05;14.00;99.90
44509;DHT22;30214;52.246;14.408;2023-08-08T00:30:33;13.90;99.90
44509;DHT22;30214;52.246;14.408;2023-08-08T00:33:03;13.80;99.90
44509;DHT22;30214;52.246;14.408;2023-08-08T00:35:32;13.80;99.90
44509;DHT22;30214;52.246;14.408;2023-08-08T00:37:58;13.80;99.90
44509;DHT22;30214;52.246;14.408;2023-08-08T00:40:26;13.80;99.90
44509;DHT22;30214;52.246;14.408;2023-08-08T00:42:53;13.80;99.90
44509;DHT22;30214;52.246;14.408;2023-08-08T00:45:20;13.70;99.90
44509;DHT22;30214;52.246;14.408;2023-08-08T00:47:51;13.70;99.90
44509;DHT22;30214;52.246;14.408;2023-08-08T00:50:18;13.70;99.90
44509;DHT22;30214;52.246;14.408;2023-08-08T00:52:46;13.60;99.90
44509;DHT22;30214;52.246;14.408;2023-08-08T00:55:13;13.60;99.90
44509;DHT22;30214;52.246;14.408;2023-08-08T00:57:41;13.50;99.90
44509;DHT22;30214;52.246;14.408;2023-08-08T01:00:09;13.50;99.90
44509;DHT22;30214;52.246;14.408;2023-08-08T01:02:36;13.40;99.90
44509;DHT22;30214;52.246;14.408;2023-08-08T01:05:05;13.40;99.90
44509;DHT22;30214;52.246;14.408;2023-08-08T01:07:38;13.40;99.90
44509;DHT22;30214;52.246;14.408;2023-08-08T01:10:09;13.40;99.90
44509;DHT22;30214;52.246;14.408;2023-08-08T01:12:40;13.40;99.90
44509;DHT22;30214;52.246;14.408;2023-08-08T01:15:10;13.40;99.90
44509;DHT22;30214;52.246;14.408;2023-08-08T01:17:37;13.40;99.90
44509;DHT22;30214;52.246;14.408;2023-08-08T01:20:07;13.30;99.90
44509;DHT22;30214;52.246;14.408;2023-08-08T01:22:37;13.30;99.90
44509;DHT22;30214;52.246;14.408;2023-08-08T01:25:08;13.30;99.90
44509;DHT22;30214;52.246;14.408;2023-08-08T01:27:36;13.20;99.90
44509;DHT22;30214;52.246;14.408;2023-08-08T01:30:04;13.10;99.90
44509;DHT22;30214;52.246;14.408;2023-08-08T01:32:31;13.00;99.90
44509;DHT22;30214;52.246;14.408;2023-08-08T01:34:58;13.10;99.90
44509;DHT22;30214;52.246;14.408;2023-08-08T01:37:29;13.00;99.90
44509;DHT22;30214;52.246;14.408;2023-08-08T01:39:59;13.00;99.90
44509;DHT22;30214;52.246;14.408;2023-08-08T01:42:29;12.90;99.90
44509;DHT22;30214;52.246;14.408;2023-08-08T01:44:56;12.80;99.90
44509;DHT22;30214;52.246;14.408;2023-08-08T01:47:23;12.80;99.90
44509;DHT22;30214;52.246;14.408;2023-08-08T01:49:50;12.80;99.90
44509;DHT22;30214;52.246;14.408;2023-08-08T01:52:17;12.80;99.90
44509;DHT22;30214;52.246;14.408;2023-08-08T01:54:44;12.80;99.90
44509;DHT22;30214;52.246;14.408;2023-08-08T01:57:11;12.70;99.90
44509;DHT22;30214;52.246;14.408;2023-08-08T01:59:39;12.60;99.90
44509;DHT22;30214;52.246;14.408;2023-08-08T02:02:06;12.60;99.90
44509;DHT22;30214;52.246;14.408;2023-08-08T02:04:33;12.60;99.90
44509;DHT22;30214;52.246;14.408;2023-08-08T02:07:00;12.60;99.90
44509;DHT22;30214;52.246;14.408;2023-08-08T02:09:27;12.60;99.90
44509;DHT22;30214;52.246;14.408;2023-08-08T02:11:54;12.50;99.90
44509;DHT22;30214;52.246;14.408;2023-08-08T02:14:21;12.50;99.90
44509;DHT22;30214;52.246;14.408;2023-08-08T02:16:50;12.40;99.90
44509;DHT22;30214;52.246;14.408;2023-08-08T02:19:17;12.40;99.90
44509;DHT22;30214;52.246;14.408;2023-08-08T02:21:44;12.40;99.90
44509;DHT22;30214;52.246;14.408;2023-08-08T02:24:11;12.30;99.90
44509;DHT22;30214;52.246;14.408;2023-08-08T02:26:37;12.40;99.90
44509;DHT22;30214;52.246;14.408;2023-08-08T02:29:08;12.40;99.90
44509;DHT22;30214;52.246;14.408;2023-08-08T02:31:35;12.30;99.90
44509;DHT22;30214;52.246;14.408;2023-08-08T02:34:03;12.30;99.90
44509;DHT22;30214;52.246;14.408;2023-08-08T02:36:30;12.20;99.90
44509;DHT22;30214;52.246;14.408;2023-08-08T02:38:58;12.20;99.90
44509;DHT22;30214;52.246;14.408;2023-08-08T02:41:25;12.10;99.90
44509;DHT22;30214;52.246;14.408;2023-08-08T02:43:52;12.10;99.90
44509;DHT22;30214;52.246;14.408;2023-08-08T02:46:19;12.10;99.90
44509;DHT22;30214;52.246;14.408;2023-08-08T02:48:46;12.10;99.90
44509;DHT22;30214;52.246;14.408;2023-08-08T02:51:14;12.10;99.90
44509;DHT22;30214;52.246;14.408;2023-08-08T02:53:41;12.00;99.90
44509;DHT22;30214;52.246;14.408;2023-08-08T02:56:08;12.00;99.90
44509;DHT22;30214;52.246;14.408;2023-08-08T02:58:39;12.00;99.90
44509;DHT22;30214;52.246;14.408;2023-08-08T03:01:07;11.90;99.90
44509;DHT22;30214;52.246;14.408;2023-08-08T03:03:34;11.90;99.90
44509;DHT22;30214;52.246;14.408;2023-08-08T03:06:02;11.90;99.90
44509;DHT22;30214;52.246;14.408;2023-08-08T03:08:30;11.80;99.90
44509;DHT22;30214;52.246;14.408;2023-08-08T03:10:58;11.80;99.90
44509;DHT22;30214;52.246;14.408;2023-08-08T03:13:25;11.80;99.90
44509;DHT22;30214;52.246;14.408;2023-08-08T03:15:56;11.80;99.90
44509;DHT22;30214;52.246;14.408;2023-08-08T03:18:23;11.90;99.90
44509;DHT22;30214;52.246;14.408;2023-08-08T03:20:51;11.80;99.90
44509;DHT22;30214;52.246;14.408;2023-08-08T03:23:19;11.70;99.90
44509;DHT22;30214;52.246;14.408;2023-08-08T03:25:48;11.60;99.90
44509;DHT22;30214;52.246;14.408;2023-08-08T03:28:16;11.70;99.90
44509;DHT22;30214;52.246;14.408;2023-08-08T03:30:43;11.70;99.90
44509;DHT22;30214;52.246;14.408;2023-08-08T03:33:13;11.70;99.90
44509;DHT22;30214;52.246;14.408;2023-08-08T03:35:40;11.80;99.90
44509;DHT22;30214;52.246;14.408;2023-08-08T03:38:07;11.80;99.90
44509;DHT22;30214;52.246;14.408;2023-08-08T03:40:34;11.80;99.90
44509;DHT22;30214;52.246;14.408;2023-08-08T03:43:02;11.80;99.90
44509;DHT22;30214;52.246;14.408;2023-08-08T03:45:30;11.80;99.90
44509;DHT22;30214;52.246;14.408;2023-08-08T03:47:57;11.80;99.90
44509;DHT22;30214;52.246;14.408;2023-08-08T03:50:23;11.60;99.90
44509;DHT22;30214;52.246;14.408;2023-08-08T03:52:50;11.60;99.90
44509;DHT22;30214;52.246;14.408;2023-08-08T03:55:18;11.60;99.90
44509;DHT22;30214;52.246;14.408;2023-08-08T03:57:45;11.60;99.90
44509;DHT22;30214;52.246;14.408;2023-08-08T04:00:14;11.60;99.90
44509;DHT22;30214;52.246;14.408;2023-08-08T04:02:42;11.60;99.90
44509;DHT22;30214;52.246;14.408;2023-08-08T04:05:09;11.50;99.90
44509;DHT22;30214;52.246;14.408;2023-08-08T04:07:38;11.60;99.90
44509;DHT22;30214;52.246;14.408;2023-08-08T04:10:05;11.60;99.90
44509;DHT22;30214;52.246;14.408;2023-08-08T04:12:33;11.60;99.90
44509;DHT22;30214;52.246;14.408;2023-08-08T04:15:00;11.70;99.90
44509;DHT22;30214;52.246;14.408;2023-08-08T04:17:28;11.80;99.90
44509;DHT22;30214;52.246;14.408;2023-08-08T04:19:55;12.10;99.90
44509;DHT22;30214;52.246;14.408;2023-08-08T04:22:22;12.40;99.90
44509;DHT22;30214;52.246;14.408;2023-08-08T04:24:49;12.80;99.90
44509;DHT22;30214;52.246;14.408;2023-08-08T04:27:16;12.90;99.90
44509;DHT22;30214;52.246;14.408;2023-08-08T04:29:43;13.10;99.90
44509;DHT22;30214;52.246;14.408;2023-08-08T04:32:10;13.20;99.90
44509;DHT22;30214;52.246;14.408;2023-08-08T04:34:39;13.50;99.90
44509;DHT22;30214;52.246;14.408;2023-08-08T04:37:05;13.60;99.90
44509;DHT22;30214;52.246;14.408;2023-08-08T04:39:32;13.70;99.90
44509;DHT22;30214;52.246;14.408;2023-08-08T04:41:59;13.90;99.90
44509;DHT22;30214;52.246;14.408;2023-08-08T04:44:26;14.10;99.90
44509;DHT22;30214;52.246;14.408;2023-08-08T04:46:53;14.10;99.90
44509;DHT22;30214;52.246;14.408;2023-08-08T04:49:20;14.20;99.90
44509;DHT22;30214;52.246;14.408;2023-08-08T04:51:49;14.40;99.90
44509;DHT22;30214;52.246;14.408;2023-08-08T04:54:15;14.50;99.90
44509;DHT22;30214;52.246;14.408;2023-08-08T04:56:42;14.60;99.90
44509;DHT22;30214;52.246;14.408;2023-08-08T04:59:09;14.60;99.90
44509;DHT22;30214;52.246;14.408;2023-08-08T05:01:36;14.70;99.90
44509;DHT22;30214;52.246;14.408;2023-08-08T05:04:03;14.80;99.90
44509;DHT22;30214;52.246;14.408;2023-08-08T05:06:30;15.00;99.90
44509;DHT22;30214;52.246;14.408;2023-08-08T05:08:59;15.10;99.90
44509;DHT22;30214;52.246;14.408;2023-08-08T05:11:26;15.30;99.90
44509;DHT22;30214;52.246;14.408;2023-08-08T05:13:52;15.30;99.90
44509;DHT22;30214;52.246;14.408;2023-08-08T05:16:19;15.30;99.90
44509;DHT22;30214;52.246;14.408;2023-08-08T05:18:48;15.50;99.90
44509;DHT22;30214;52.246;14.408;2023-08-08T05:21:15;15.50;99.90
44509;DHT22;30214;52.246;14.408;2023-08-08T05:23:42;15.40;99.90
44509;DHT22;30214;52.246;14.408;2023-08-08T05:26:10;15.50;99.90
44509;DHT22;30214;52.246;14.408;2023-08-08T05:28:37;15.50;99.90
44509;DHT22;30214;52.246;14.408;2023-08-08T05:31:04;15.70;99.90
44509;DHT22;30214;52.246;14.408;2023-08-08T05:33:31;15.60;99.90
44509;DHT22;30214;52.246;14.408;2023-08-08T05:35:59;15.60;99.90
44509;DHT22;30214;52.246;14.408;2023-08-08T05:38:25;15.30;99.90
44509;DHT22;30214;52.246;14.408;2023-08-08T05:40:52;15.20;99.90
44509;DHT22;30214;52.246;14.408;2023-08-08T05:43:21;15.20;99.90
44509;DHT22;30214;52.246;14.408;2023-08-08T05:45:47;15.10;99.90
44509;DHT22;30214;52.246;14.408;2023-08-08T05:48:14;15.00;99.90
44509;DHT22;30214;52.246;14.408;2023-08-08T05:50:41;14.70;99.90
44509;DHT22;30214;52.246;14.408;2023-08-08T05:53:08;15.00;99.90
44509;DHT22;30214;52.246;14.408;2023-08-08T05:55:35;15.20;99.90
44509;DHT22;30214;52.246;14.408;2023-08-08T05:58:02;15.10;99.90
44509;DHT22;30214;52.246;14.408;2023-08-08T06:00:31;15.10;99.90
44509;DHT22;30214;52.246;14.408;2023-08-08T06:02:58;14.90;99.90
44509;DHT22;30214;52.246;14.408;2023-08-08T06:05:25;14.80;99.90
44509;DHT22;30214;52.246;14.408;2023-08-08T06:07:52;15.10;99.90
44509;DHT22;30214;52.246;14.408;2023-08-08T06:10:20;15.70;99.90
44509;DHT22;30214;52.246;14.408;2023-08-08T06:12:47;16.10;99.90
44509;DHT22;30214;52.246;14.408;2023-08-08T06:15:14;16.10;99.90
44509;DHT22;30214;52.246;14.408;2023-08-08T06:17:42;15.80;99.90
44509;DHT22;30214;52.246;14.408;2023-08-08T06:20:10;15.70;99.90
44509;DHT22;30214;52.246;14.408;2023-08-08T06:22:37;15.70;99.90
44509;DHT22;30214;52.246;14.408;2023-08-08T06:25:05;15.60;99.90
44509;DHT22;30214;52.246;14.408;2023-08-08T06:27:32;15.80;99.90
44509;DHT22;30214;52.246;14.408;2023-08-08T06:29:59;16.10;99.90
44509;DHT22;30214;52.246;14.408;2023-08-08T06:32:26;16.10;99.90
44509;DHT22;30214;52.246;14.408;2023-08-08T06:34:54;16.00;99.90
44509;DHT22;30214;52.246;14.408;2023-08-08T06:37:21;15.80;99.90
44509;DHT22;30214;52.246;14.408;2023-08-08T06:39:48;15.70;99.90
44509;DHT22;30214;52.246;14.408;2023-08-08T06:42:15;15.60;99.90
44509;DHT22;30214;52.246;14.408;2023-08-08T06:44:53;15.70;99.90
44509;DHT22;30214;52.246;14.408;2023-08-08T06:47:20;15.80;99.90
44509;DHT22;30214;52.246;14.408;2023-08-08T06:49:47;15.90;99.90
44509;DHT22;30214;52.246;14.408;2023-08-08T06:52:15;16.00;99.90
44509;DHT22;30214;52.246;14.408;2023-08-08T06:54:42;15.80;99.90
44509;DHT22;30214;52.246;14.408;2023-08-08T06:57:12;15.80;99.90
44509;DHT22;30214;52.246;14.408;2023-08-08T06:59:39;15.80;99.90
44509;DHT22;30214;52.246;14.408;2023-08-08T07:02:07;15.80;99.90
44509;DHT22;30214;52.246;14.408;2023-08-08T07:04:34;15.90;99.90
44509;DHT22;30214;52.246;14.408;2023-08-08T07:07:00;16.00;99.90
44509;DHT22;30214;52.246;14.408;2023-08-08T07:09:29;16.00;99.90
44509;DHT22;30214;52.246;14.408;2023-08-08T07:11:56;16.00;99.90
44509;DHT22;30214;52.246;14.408;2023-08-08T07:14:23;16.10;99.90
44509;DHT22;30214;52.246;14.408;2023-08-08T07:16:50;16.10;99.90
44509;DHT22;30214;52.246;14.408;2023-08-08T07:19:19;16.00;99.90
44509;DHT22;30214;52.246;14.408;2023-08-08T07:21:45;16.10;99.90
44509;DHT22;30214;52.246;14.408;2023-08-08T07:24:13;16.20;99.90
44509;DHT22;30214;52.246;14.408;2023-08-08T07:26:41;16.40;99.90
44509;DHT22;30214;52.246;14.408;2023-08-08T07:29:08;16.40;99.90
44509;DHT22;30214;52.246;14.408;2023-08-08T07:31:35;16.30;99.90
44509;DHT22;30214;52.246;14.408;2023-08-08T07:34:02;16.30;99.90
44509;DHT22;30214;52.246;14.408;2023-08-08T07:36:29;16.20;99.90
44509;DHT22;30214;52.246;14.408;2023-08-08T07:38:56;16.20;99.90
44509;DHT22;30214;52.246;14.408;2023-08-08T07:41:25;16.20;99.90
44509;DHT22;30214;52.246;14.408;2023-08-08T07:43:53;16.10;99.90
44509;DHT22;30214;52.246;14.408;2023-08-08T07:46:21;16.10;99.90
44509;DHT22;30214;52.246;14.408;2023-08-08T07:48:48;16.20;99.90
44509;DHT22;30214;52.246;14.408;2023-08-08T07:51:15;16.30;99.90
44509;DHT22;30214;52.246;14.408;2023-08-08T07:53:45;16.40;99.90
44509;DHT22;30214;52.246;14.408;2023-08-08T07:56:12;16.30;99.90
44509;DHT22;30214;52.246;14.408;2023-08-08T07:58:39;16.10;99.90
44509;DHT22;30214;52.246;14.408;2023-08-08T08:01:07;16.10;99.90
44509;DHT22;30214;52.246;14.408;2023-08-08T08:03:34;16.00;99.90
44509;DHT22;30214;52.246;14.408;2023-08-08T08:06:01;16.00;99.90
44509;DHT22;30214;52.246;14.408;2023-08-08T08:08:28;16.10;99.90
44509;DHT22;30214;52.246;14.408;2023-08-08T08:10:55;16.30;99.90
44509;DHT22;30214;52.246;14.408;2023-08-08T08:13:22;16.50;99.90
44509;DHT22;30214;52.246;14.408;2023-08-08T08:15:49;16.70;99.90
44509;DHT22;30214;52.246;14.408;2023-08-08T08:18:17;17.10;99.90
44509;DHT22;30214;52.246;14.408;2023-08-08T08:20:46;17.30;99.90
44509;DHT22;30214;52.246;14.408;2023-08-08T08:23:13;17.20;99.90
44509;DHT22;30214;52.246;14.408;2023-08-08T08:25:42;17.20;99.90
44509;DHT22;30214;52.246;14.408;2023-08-08T08:28:10;17.20;99.90
44509;DHT22;30214;52.246;14.408;2023-08-08T08:30:37;17.10;99.90
44509;DHT22;30214;52.246;14.408;2023-08-08T08:33:04;17.20;99.90
44509;DHT22;30214;52.246;14.408;2023-08-08T08:35:34;17.30;99.90
44509;DHT22;30214;52.246;14.408;2023-08-08T08:38:01;17.30;99.90
44509;DHT22;30214;52.246;14.408;2023-08-08T08:40:29;17.30;99.90
44509;DHT22;30214;52.246;14.408;2023-08-08T08:43:01;17.40;99.90
44509;DHT22;30214;52.246;14.408;2023-08-08T08:45:30;17.40;99.90
44509;DHT22;30214;52.246;14.408;2023-08-08T08:47:57;17.40;99.90
44509;DHT22;30214;52.246;14.408;2023-08-08T08:50:27;17.50;99.90
44509;DHT22;30214;52.246;14.408;2023-08-08T08:52:55;17.70;99.90
44509;DHT22;30214;52.246;14.408;2023-08-08T08:55:23;17.60;99.90
44509;DHT22;30214;52.246;14.408;2023-08-08T08:57:51;17.50;99.90
44509;DHT22;30214;52.246;14.408;2023-08-08T09:00:18;17.60;99.90
44509;DHT22;30214;52.246;14.408;2023-08-08T09:02:45;17.60;99.90
44509;DHT22;30214;52.246;14.408;2023-08-08T09:05:15;17.70;99.90
44509;DHT22;30214;52.246;14.408;2023-08-08T09:07:47;17.70;99.90
44509;DHT22;30214;52.246;14.408;2023-08-08T09:10:16;17.70;99.90
44509;DHT22;30214;52.246;14.408;2023-08-08T09:12:44;17.70;99.90
44509;DHT22;30214;52.246;14.408;2023-08-08T09:15:12;17.70;99.90
44509;DHT22;30214;52.246;14.408;2023-08-08T09:17:41;17.70;99.90
44509;DHT22;30214;52.246;14.408;2023-08-08T09:20:09;18.00;99.90
44509;DHT22;30214;52.246;14.408;2023-08-08T09:22:37;18.20;99.90
44509;DHT22;30214;52.246;14.408;2023-08-08T09:25:05;18.50;99.90
44509;DHT22;30214;52.246;14.408;2023-08-08T09:27:35;18.90;99.90
44509;DHT22;30214;52.246;14.408;2023-08-08T09:30:02;19.30;99.90
44509;DHT22;30214;52.246;14.408;2023-08-08T09:32:30;19.30;99.90
44509;DHT22;30214;52.246;14.408;2023-08-08T09:34:58;19.50;99.90
44509;DHT22;30214;52.246;14.408;2023-08-08T09:37:25;19.40;99.90
44509;DHT22;30214;52.246;14.408;2023-08-08T09:39:56;19.60;99.90
44509;DHT22;30214;52.246;14.408;2023-08-08T09:42:25;19.80;99.80
44509;DHT22;30214;52.246;14.408;2023-08-08T09:44:53;20.00;98.90
44509;DHT22;30214;52.246;14.408;2023-08-08T09:47:21;19.50;99.30
44509;DHT22;30214;52.246;14.408;2023-08-08T09:49:48;19.20;99.90
44509;DHT22;30214;52.246;14.408;2023-08-08T09:52:17;19.30;99.90
44509;DHT22;30214;52.246;14.408;2023-08-08T09:54:46;19.40;99.90
44509;DHT22;30214;52.246;14.408;2023-08-08T09:57:14;19.50;99.90
44509;DHT22;30214;52.246;14.408;2023-08-08T09:59:41;19.30;99.70
44509;DHT22;30214;52.246;14.408;2023-08-08T10:02:13;19.00;99.90
44509;DHT22;30214;52.246;14.408;2023-08-08T10:04:41;18.70;99.90
44509;DHT22;30214;52.246;14.408;2023-08-08T10:07:08;18.40;99.90
44509;DHT22;30214;52.246;14.408;2023-08-08T10:09:35;18.00;99.90
44509;DHT22;30214;52.246;14.408;2023-08-08T10:12:03;18.00;99.90
44509;DHT22;30214;52.246;14.408;2023-08-08T10:14:32;18.20;99.90
44509;DHT22;30214;52.246;14.408;2023-08-08T10:17:03;18.70;99.90
44509;DHT22;30214;52.246;14.408;2023-08-08T10:19:32;18.60;99.90
44509;DHT22;30214;52.246;14.408;2023-08-08T10:22:02;18.30;99.90
44509;DHT22;30214;52.246;14.408;2023-08-08T10:24:33;18.30;99.90
44509;DHT22;30214;52.246;14.408;2023-08-08T10:27:01;18.70;99.90
44509;DHT22;30214;52.246;14.408;2023-08-08T10:29:31;19.20;99.90
44509;DHT22;30214;52.246;14.408;2023-08-08T10:32:00;19.40;98.90
44509;DHT22;30214;52.246;14.408;2023-08-08T10:34:37;19.10;97.80
44509;DHT22;30214;52.246;14.408;2023-08-08T10:37:04;18.90;97.60
44509;DHT22;30214;52.246;14.408;2023-08-08T10:39:32;18.70;98.00
44509;DHT22;30214;52.246;14.408;2023-08-08T10:42:04;18.50;99.90
44509;DHT22;30214;52.246;14.408;2023-08-08T10:44:31;18.50;99.90
44509;DHT22;30214;52.246;14.408;2023-08-08T10:47:00;19.00;99.90
44509;DHT22;30214;52.246;14.408;2023-08-08T10:49:27;19.40;99.50
44509;DHT22;30214;52.246;14.408;2023-08-08T10:52:02;19.40;99.50
44509;DHT22;30214;52.246;14.408;2023-08-08T10:54:29;19.40;99.90
44509;DHT22;30214;52.246;14.408;2023-08-08T10:56:59;19.50;99.90
44509;DHT22;30214;52.246;14.408;2023-08-08T10:59:27;19.80;99.20
44509;DHT22;30214;52.246;14.408;2023-08-08T11:01:57;19.70;99.50
44509;DHT22;30214;52.246;14.408;2023-08-08T11:04:29;19.50;99.30
44509;DHT22;30214;52.246;14.408;2023-08-08T11:07:01;19.30;99.60
44509;DHT22;30214;52.246;14.408;2023-08-08T11:09:28;19.00;99.90
44509;DHT22;30214;52.246;14.408;2023-08-08T11:11:56;18.80;99.90
44509;DHT22;30214;52.246;14.408;2023-08-08T11:14:24;19.00;99.90
44509;DHT22;30214;52.246;14.408;2023-08-08T11:16:53;19.50;99.40
44509;DHT22;30214;52.246;14.408;2023-08-08T11:19:20;20.00;99.90
44509;DHT22;30214;52.246;14.408;2023-08-08T11:21:48;20.50;98.50
44509;DHT22;30214;52.246;14.408;2023-08-08T11:24:16;20.70;96.20
44509;DHT22;30214;52.246;14.408;2023-08-08T11:26:44;20.50;96.30
44509;DHT22;30214;52.246;14.408;2023-08-08T11:29:12;20.40;96.60
44509;DHT22;30214;52.246;14.408;2023-08-08T11:31:41;20.30;97.70
44509;DHT22;30214;52.246;14.408;2023-08-08T11:34:08;20.40;95.60
44509;DHT22;30214;52.246;14.408;2023-08-08T11:36:39;20.60;96.90
44509;DHT22;30214;52.246;14.408;2023-08-08T11:39:07;20.70;97.10
44509;DHT22;30214;52.246;14.408;2023-08-08T11:41:37;20.90;96.80
44509;DHT22;30214;52.246;14.408;2023-08-08T11:44:07;20.70;96.30
44509;DHT22;30214;52.246;14.408;2023-08-08T11:46:42;20.50;97.20
44509;DHT22;30214;52.246;14.408;2023-08-08T11:49:14;20.40;95.70
44509;DHT22;30214;52.246;14.408;2023-08-08T11:51:45;20.30;95.10
44509;DHT22;30214;52.246;14.408;2023-08-08T11:54:13;20.10;95.50
44509;DHT22;30214;52.246;14.408;2023-08-08T11:56:45;19.90;96.40
44509;DHT22;30214;52.246;14.408;2023-08-08T11:59:17;19.70;96.50
44509;DHT22;30214;52.246;14.408;2023-08-08T12:01:49;19.60;95.70
44509;DHT22;30214;52.246;14.408;2023-08-08T12:04:20;19.40;97.40
44509;DHT22;30214;52.246;14.408;2023-08-08T12:07:00;19.30;97.20
44509;DHT22;30214;52.246;14.408;2023-08-08T12:09:29;19.20;96.30
44509;DHT22;30214;52.246;14.408;2023-08-08T12:12:01;19.20;96.90
44509;DHT22;30214;52.246;14.408;2023-08-08T12:14:28;19.10;97.20
44509;DHT22;30214;52.246;14.408;2023-08-08T12:16:55;19.00;98.00
44509;DHT22;30214;52.246;14.408;2023-08-08T12:19:24;18.90;97.90
44509;DHT22;30214;52.246;14.408;2023-08-08T12:21:51;18.90;97.60
44509;DHT22;30214;52.246;14.408;2023-08-08T12:24:18;19.00;97.50
44509;DHT22;30214;52.246;14.408;2023-08-08T12:26:45;19.20;96.70
44509;DHT22;30214;52.246;14.408;2023-08-08T12:29:14;19.50;95.90
44509;DHT22;30214;52.246;14.408;2023-08-08T12:31:41;19.50;96.60
44509;DHT22;30214;52.246;14.408;2023-08-08T12:34:08;19.50;96.40
44509;DHT22;30214;52.246;14.408;2023-08-08T12:36:35;19.20;96.20
44509;DHT22;30214;52.246;14.408;2023-08-08T12:39:04;19.10;96.80
44509;DHT22;30214;52.246;14.408;2023-08-08T12:41:34;18.90;96.40
44509;DHT22;30214;52.246;14.408;2023-08-08T12:44:01;18.80;96.70
44509;DHT22;30214;52.246;14.408;2023-08-08T12:46:30;18.80;96.80
44509;DHT22;30214;52.246;14.408;2023-08-08T12:48:57;18.80;96.80
44509;DHT22;30214;52.246;14.408;2023-08-08T12:51:24;18.40;99.90
44509;DHT22;30214;52.246;14.408;2023-08-08T12:53:51;17.50;99.90
44509;DHT22;30214;52.246;14.408;2023-08-08T12:56:18;16.50;99.90
44509;DHT22;30214;52.246;14.408;2023-08-08T12:58:45;15.70;99.90
44509;DHT22;30214;52.246;14.408;2023-08-08T13:01:12;15.00;99.90
44509;DHT22;30214;52.246;14.408;2023-08-08T13:03:41;14.70;99.90
44509;DHT22;30214;52.246;14.408;2023-08-08T13:06:08;14.60;99.90
44509;DHT22;30214;52.246;14.408;2023-08-08T13:08:37;14.70;99.90
44509;DHT22;30214;52.246;14.408;2023-08-08T13:11:05;14.80;99.90
44509;DHT22;30214;52.246;14.408;2023-08-08T13:13:32;14.90;99.90
44509;DHT22;30214;52.246;14.408;2023-08-08T13:15:59;15.20;99.90
44509;DHT22;30214;52.246;14.408;2023-08-08T13:18:26;15.30;99.90
44509;DHT22;30214;52.246;14.408;2023-08-08T13:20:54;15.50;99.90
44509;DHT22;30214;52.246;14.408;2023-08-08T13:23:21;15.70;99.90
44509;DHT22;30214;52.246;14.408;2023-08-08T13:25:48;15.80;99.90
44509;DHT22;30214;52.246;14.408;2023-08-08T13:28:15;15.90;99.90
44509;DHT22;30214;52.246;14.408;2023-08-08T13:30:42;15.90;99.90
44509;DHT22;30214;52.246;14.408;2023-08-08T13:33:09;15.90;99.90
44509;DHT22;30214;52.246;14.408;2023-08-08T13:35:36;15.90;99.90
44509;DHT22;30214;52.246;14.408;2023-08-08T13:38:04;16.00;99.90
44509;DHT22;30214;52.246;14.408;2023-08-08T13:40:33;16.10;99.90
44509;DHT22;30214;52.246;14.408;2023-08-08T13:43:00;16.40;99.90
44509;DHT22;30214;52.246;14.408;2023-08-08T13:45:27;16.70;99.90
44509;DHT22;30214;52.246;14.408;2023-08-08T13:47:54;17.00;99.90
44509;DHT22;30214;52.246;14.408;2023-08-08T13:50:21;17.10;99.90
44509;DHT22;30214;52.246;14.408;2023-08-08T13:52:48;17.30;99.90
44509;DHT22;30214;52.246;14.408;2023-08-08T13:55:16;17.60;99.90
44509;DHT22;30214;52.246;14.408;2023-08-08T13:57:43;17.70;99.90
44509;DHT22;30214;52.246;14.408;2023-08-08T14:00:11;17.60;99.90
44509;DHT22;30214;52.246;14.408;2023-08-08T14:02:38;17.60;99.90
44509;DHT22;30214;52.246;14.408;2023-08-08T14:05:06;17.60;99.90
44509;DHT22;30214;52.246;14.408;2023-08-08T14:07:34;17.80;99.90
44509;DHT22;30214;52.246;14.408;2023-08-08T14:10:02;17.90;99.90
44509;DHT22;30214;52.246;14.408;2023-08-08T14:12:30;17.90;99.90
44509;DHT22;30214;52.246;14.408;2023-08-08T14:14:57;17.80;99.90
44509;DHT22;30214;52.246;14.408;2023-08-08T14:17:24;17.80;99.90
44509;DHT22;30214;52.246;14.408;2023-08-08T14:19:52;18.00;99.90
44509;DHT22;30214;52.246;14.408;2023-08-08T14:22:18;18.30;99.90
44509;DHT22;30214;52.246;14.408;2023-08-08T14:24:45;18.50;99.90
44509;DHT22;30214;52.246;14.408;2023-08-08T14:27:12;18.60;99.90
44509;DHT22;30214;52.246;14.408;2023-08-08T14:29:41;18.80;99.90
44509;DHT22;30214;52.246;14.408;2023-08-08T14:32:08;18.90;99.90
44509;DHT22;30214;52.246;14.408;2023-08-08T14:34:36;18.90;99.90
44509;DHT22;30214;52.246;14.408;2023-08-08T14:37:06;19.00;99.90
44509;DHT22;30214;52.246;14.408;2023-08-08T14:39:33;18.80;99.90
44509;DHT22;30214;52.246;14.408;2023-08-08T14:42:00;18.60;99.90
44509;DHT22;30214;52.246;14.408;2023-08-08T14:44:27;18.70;99.90
44509;DHT22;30214;52.246;14.408;2023-08-08T14:46:56;18.60;99.90
44509;DHT22;30214;52.246;14.408;2023-08-08T14:49:23;18.50;99.90
44509;DHT22;30214;52.246;14.408;2023-08-08T14:51:51;18.70;99.90
44509;DHT22;30214;52.246;14.408;2023-08-08T14:54:18;19.00;99.90
44509;DHT22;30214;52.246;14.408;2023-08-08T14:56:45;19.10;99.90
44509;DHT22;30214;52.246;14.408;2023-08-08T14:59:12;18.80;99.90
44509;DHT22;30214;52.246;14.408;2023-08-08T15:01:40;18.60;99.90
44509;DHT22;30214;52.246;14.408;2023-08-08T15:04:10;18.50;99.90
44509;DHT22;30214;52.246;14.408;2023-08-08T15:06:41;18.40;99.90
44509;DHT22;30214;52.246;14.408;2023-08-08T15:09:10;18.30;99.90
44509;DHT22;30214;52.246;14.408;2023-08-08T15:11:39;18.30;99.90
44509;DHT22;30214;52.246;14.408;2023-08-08T15:14:07;18.40;99.90
44509;DHT22;30214;52.246;14.408;2023-08-08T15:16:35;18.30;99.90
44509;DHT22;30214;52.246;14.408;2023-08-08T15:19:02;18.20;99.90